sensor_id;sensor_type;location;lat;lon;timestamp;P1;durP1;ratioP1;P2;durP2;ratioP2
9761;SDS011;4920;49.594;11.022;2023-02-28T00:00:05;6.13;;;4.23;;
9761;SDS011;4920;49.594;11.022;2023-02-28T00:02:36;6.97;;;4.50;;
9761;SDS011;4920;49.594;11.022;2023-02-28T00:05:07;6.83;;;4.13;;
9761;SDS011;4920;49.594;11.022;2023-02-28T00:10:35;6.93;;;4.60;;
9761;SDS011;4920;49.594;11.022;2023-02-28T00:13:05;6.27;;;4.30;;
9761;SDS011;4920;49.594;11.022;2023-02-28T00:15:34;6.93;;;4.37;;
9761;SDS011;4920;49.594;11.022;2023-02-28T00:18:03;7.60;;;4.17;;
9761;SDS011;4920;49.594;11.022;2023-02-28T00:20:32;6.63;;;4.37;;
9761;SDS011;4920;49.594;11.022;2023-02-28T00:23:00;6.93;;;4.53;;
9761;SDS011;4920;49.594;11.022;2023-02-28T00:25:31;7.97;;;4.40;;
9761;SDS011;4920;49.594;11.022;2023-02-28T00:27:59;6.13;;;4.30;;
9761;SDS011;4920;49.594;11.022;2023-02-28T00:30:28;5.90;;;4.30;;
9761;SDS011;4920;49.594;11.022;2023-02-28T00:32:57;6.33;;;4.27;;
9761;SDS011;4920;49.594;11.022;2023-02-28T00:35:26;5.97;;;4.30;;
9761;SDS011;4920;49.594;11.022;2023-02-28T00:37:55;7.03;;;4.30;;
9761;SDS011;4920;49.594;11.022;2023-02-28T00:40:26;7.13;;;4.30;;
9761;SDS011;4920;49.594;11.022;2023-02-28T00:42:56;5.47;;;3.90;;
9761;SDS011;4920;49.594;11.022;2023-02-28T00:45:25;8.23;;;4.43;;
9761;SDS011;4920;49.594;11.022;2023-02-28T00:47:54;7.70;;;4.70;;
9761;SDS011;4920;49.594;11.022;2023-02-28T00:50:23;8.33;;;4.57;;
9761;SDS011;4920;49.594;11.022;2023-02-28T00:52:52;8.30;;;4.50;;
9761;SDS011;4920;49.594;11.022;2023-02-28T00:55:21;7.23;;;4.50;;
9761;SDS011;4920;49.594;11.022;2023-02-28T00:57:49;7.97;;;4.60;;
9761;SDS011;4920;49.594;11.022;2023-02-28T01:00:20;6.00;;;4.30;;
9761;SDS011;4920;49.594;11.022;2023-02-28T01:02:49;7.60;;;4.80;;
9761;SDS011;4920;49.594;11.022;2023-02-28T01:05:18;7.37;;;4.50;;
9761;SDS011;4920;49.594;11.022;2023-02-28T01:07:46;5.77;;;4.33;;
9761;SDS011;4920;49.594;11.022;2023-02-28T01:10:15;6.60;;;4.60;;
9761;SDS011;4920;49.594;11.022;2023-02-28T01:12:44;8.30;;;4.60;;
9761;SDS011;4920;49.594;11.022;2023-02-28T01:15:14;6.90;;;4.80;;
9761;SDS011;4920;49.594;11.022;2023-02-28T01:17:45;8.20;;;4.87;;
9761;SDS011;4920;49.594;11.022;2023-02-28T01:20:14;6.67;;;4.80;;
9761;SDS011;4920;49.594;11.022;2023-02-28T01:22:42;6.00;;;4.37;;
9761;SDS011;4920;49.594;11.022;2023-02-28T01:25:11;5.60;;;4.23;;
9761;SDS011;4920;49.594;11.022;2023-02-28T01:27:40;6.50;;;4.40;;
9761;SDS011;4920;49.594;11.022;2023-02-28T01:30:10;6.53;;;4.20;;
9761;SDS011;4920;49.594;11.022;2023-02-28T01:32:39;6.67;;;4.60;;
9761;SDS011;4920;49.594;11.022;2023-02-28T01:35:10;6.87;;;4.27;;
9761;SDS011;4920;49.594;11.022;2023-02-28T01:37:38;7.20;;;4.47;;
9761;SDS011;4920;49.594;11.022;2023-02-28T01:40:08;7.30;;;4.50;;
9761;SDS011;4920;49.594;11.022;2023-02-28T01:42:37;6.60;;;4.90;;
9761;SDS011;4920;49.594;11.022;2023-02-28T01:45:10;7.13;;;4.90;;
9761;SDS011;4920;49.594;11.022;2023-02-28T01:47:47;7.90;;;4.70;;
9761;SDS011;4920;49.594;11.022;2023-02-28T01:50:22;7.50;;;5.07;;
9761;SDS011;4920;49.594;11.022;2023-02-28T01:52:53;8.30;;;4.77;;
9761;SDS011;4920;49.594;11.022;2023-02-28T01:55:24;7.47;;;4.93;;
9761;SDS011;4920;49.594;11.022;2023-02-28T01:57:58;7.27;;;5.00;;
9761;SDS011;4920;49.594;11.022;2023-02-28T02:00:30;6.23;;;4.47;;
9761;SDS011;4920;49.594;11.022;2023-02-28T02:03:01;7.37;;;4.87;;
9761;SDS011;4920;49.594;11.022;2023-02-28T02:05:38;8.37;;;5.17;;
9761;SDS011;4920;49.594;11.022;2023-02-28T02:08:10;9.07;;;5.03;;
9761;SDS011;4920;49.594;11.022;2023-02-28T02:10:42;7.17;;;4.67;;
9761;SDS011;4920;49.594;11.022;2023-02-28T02:13:22;6.63;;;4.90;;
9761;SDS011;4920;49.594;11.022;2023-02-28T02:16:04;6.43;;;4.73;;
9761;SDS011;4920;49.594;11.022;2023-02-28T02:18:46;6.87;;;4.63;;
9761;SDS011;4920;49.594;11.022;2023-02-28T02:21:28;8.47;;;4.33;;
9761;SDS011;4920;49.594;11.022;2023-02-28T02:27:31;6.40;;;4.77;;
9761;SDS011;4920;49.594;11.022;2023-02-28T02:30:17;9.93;;;5.30;;
9761;SDS011;4920;49.594;11.022;2023-02-28T02:33:10;8.63;;;5.03;;
9761;SDS011;4920;49.594;11.022;2023-02-28T02:35:59;10.53;;;4.97;;
9761;SDS011;4920;49.594;11.022;2023-02-28T02:38:34;5.97;;;4.43;;
9761;SDS011;4920;49.594;11.022;2023-02-28T02:41:15;7.80;;;5.47;;
9761;SDS011;4920;49.594;11.022;2023-02-28T02:43:49;7.87;;;4.90;;
9761;SDS011;4920;49.594;11.022;2023-02-28T02:46:21;7.90;;;5.10;;
9761;SDS011;4920;49.594;11.022;2023-02-28T02:48:55;8.23;;;5.50;;
9761;SDS011;4920;49.594;11.022;2023-02-28T02:51:27;7.57;;;5.47;;
9761;SDS011;4920;49.594;11.022;2023-02-28T02:54:00;9.00;;;5.27;;
9761;SDS011;4920;49.594;11.022;2023-02-28T02:56:33;9.00;;;5.30;;
9761;SDS011;4920;49.594;11.022;2023-02-28T02:59:04;7.20;;;5.27;;
9761;SDS011;4920;49.594;11.022;2023-02-28T03:01:35;7.13;;;5.13;;
9761;SDS011;4920;49.594;11.022;2023-02-28T03:04:07;8.20;;;5.27;;
9761;SDS011;4920;49.594;11.022;2023-02-28T03:06:41;9.23;;;5.37;;
9761;SDS011;4920;49.594;11.022;2023-02-28T03:09:10;7.90;;;5.50;;
9761;SDS011;4920;49.594;11.022;2023-02-28T03:11:54;7.13;;;5.27;;
9761;SDS011;4920;49.594;11.022;2023-02-28T03:14:25;6.23;;;5.00;;
9761;SDS011;4920;49.594;11.022;2023-02-28T03:17:08;8.23;;;4.80;;
9761;SDS011;4920;49.594;11.022;2023-02-28T03:19:50;9.93;;;5.30;;
9761;SDS011;4920;49.594;11.022;2023-02-28T03:22:31;7.73;;;5.67;;
9761;SDS011;4920;49.594;11.022;2023-02-28T03:25:08;7.03;;;5.30;;
9761;SDS011;4920;49.594;11.022;2023-02-28T03:27:48;10.00;;;5.33;;
9761;SDS011;4920;49.594;11.022;2023-02-28T03:30:26;7.60;;;5.70;;
9761;SDS011;4920;49.594;11.022;2023-02-28T03:33:03;7.13;;;5.03;;
9761;SDS011;4920;49.594;11.022;2023-02-28T03:35:36;10.70;;;5.43;;
9761;SDS011;4920;49.594;11.022;2023-02-28T03:38:09;8.50;;;5.63;;
9761;SDS011;4920;49.594;11.022;2023-02-28T03:40:43;8.67;;;5.63;;
9761;SDS011;4920;49.594;11.022;2023-02-28T03:43:19;11.13;;;5.80;;
9761;SDS011;4920;49.594;11.022;2023-02-28T03:45:52;10.27;;;6.00;;
9761;SDS011;4920;49.594;11.022;2023-02-28T03:48:23;9.43;;;5.77;;
9761;SDS011;4920;49.594;11.022;2023-02-28T03:50:57;9.83;;;6.27;;
9761;SDS011;4920;49.594;11.022;2023-02-28T03:53:28;8.33;;;5.53;;
9761;SDS011;4920;49.594;11.022;2023-02-28T03:56:01;7.30;;;4.97;;
9761;SDS011;4920;49.594;11.022;2023-02-28T03:58:38;7.83;;;5.60;;
9761;SDS011;4920;49.594;11.022;2023-02-28T04:01:12;9.17;;;5.87;;
9761;SDS011;4920;49.594;11.022;2023-02-28T04:03:45;8.53;;;5.40;;
9761;SDS011;4920;49.594;11.022;2023-02-28T04:06:15;8.63;;;5.90;;
9761;SDS011;4920;49.594;11.022;2023-02-28T04:08:46;9.80;;;5.63;;
9761;SDS011;4920;49.594;11.022;2023-02-28T04:11:17;8.70;;;5.70;;
9761;SDS011;4920;49.594;11.022;2023-02-28T04:13:50;8.80;;;6.40;;
9761;SDS011;4920;49.594;11.022;2023-02-28T04:16:19;9.13;;;6.13;;
9761;SDS011;4920;49.594;11.022;2023-02-28T04:19:01;9.40;;;6.00;;
9761;SDS011;4920;49.594;11.022;2023-02-28T04:21:32;9.07;;;6.50;;
9761;SDS011;4920;49.594;11.022;2023-02-28T04:24:03;8.27;;;5.93;;
9761;SDS011;4920;49.594;11.022;2023-02-28T04:26:34;8.70;;;6.10;;
9761;SDS011;4920;49.594;11.022;2023-02-28T04:29:06;8.83;;;6.20;;
9761;SDS011;4920;49.594;11.022;2023-02-28T04:31:35;9.77;;;6.33;;
9761;SDS011;4920;49.594;11.022;2023-02-28T04:34:04;8.90;;;5.67;;
9761;SDS011;4920;49.594;11.022;2023-02-28T04:36:32;10.43;;;6.07;;
9761;SDS011;4920;49.594;11.022;2023-02-28T04:39:01;9.70;;;6.40;;
9761;SDS011;4920;49.594;11.022;2023-02-28T04:41:30;9.40;;;6.47;;
9761;SDS011;4920;49.594;11.022;2023-02-28T04:44:00;10.07;;;6.77;;
9761;SDS011;4920;49.594;11.022;2023-02-28T04:46:30;9.33;;;6.10;;
9761;SDS011;4920;49.594;11.022;2023-02-28T04:48:59;10.13;;;6.40;;
9761;SDS011;4920;49.594;11.022;2023-02-28T04:51:28;10.20;;;6.67;;
9761;SDS011;4920;49.594;11.022;2023-02-28T04:53:57;9.87;;;6.67;;
9761;SDS011;4920;49.594;11.022;2023-02-28T04:56:26;10.07;;;6.10;;
9761;SDS011;4920;49.594;11.022;2023-02-28T04:58:54;10.40;;;6.30;;
9761;SDS011;4920;49.594;11.022;2023-02-28T05:01:24;8.67;;;6.10;;
9761;SDS011;4920;49.594;11.022;2023-02-28T05:03:57;10.50;;;6.47;;
9761;SDS011;4920;49.594;11.022;2023-02-28T05:06:27;10.37;;;6.77;;
9761;SDS011;4920;49.594;11.022;2023-02-28T05:08:58;9.00;;;6.50;;
9761;SDS011;4920;49.594;11.022;2023-02-28T05:11:28;10.30;;;6.07;;
9761;SDS011;4920;49.594;11.022;2023-02-28T05:14:01;9.50;;;6.57;;
9761;SDS011;4920;49.594;11.022;2023-02-28T05:16:31;10.73;;;6.67;;
9761;SDS011;4920;49.594;11.022;2023-02-28T05:19:01;9.87;;;6.43;;
9761;SDS011;4920;49.594;11.022;2023-02-28T05:21:31;10.37;;;6.90;;
9761;SDS011;4920;49.594;11.022;2023-02-28T05:24:02;11.83;;;7.10;;
9761;SDS011;4920;49.594;11.022;2023-02-28T05:26:33;9.83;;;6.97;;
9761;SDS011;4920;49.594;11.022;2023-02-28T05:29:03;9.53;;;6.87;;
9761;SDS011;4920;49.594;11.022;2023-02-28T05:31:33;12.50;;;6.93;;
9761;SDS011;4920;49.594;11.022;2023-02-28T05:34:04;10.20;;;6.77;;
9761;SDS011;4920;49.594;11.022;2023-02-28T05:36:33;12.37;;;6.77;;
9761;SDS011;4920;49.594;11.022;2023-02-28T05:39:04;12.20;;;7.00;;
9761;SDS011;4920;49.594;11.022;2023-02-28T05:41:34;13.83;;;7.50;;
9761;SDS011;4920;49.594;11.022;2023-02-28T05:44:03;10.30;;;7.03;;
9761;SDS011;4920;49.594;11.022;2023-02-28T05:46:31;11.63;;;7.50;;
9761;SDS011;4920;49.594;11.022;2023-02-28T05:49:00;10.87;;;6.87;;
9761;SDS011;4920;49.594;11.022;2023-02-28T05:51:30;10.53;;;6.37;;
9761;SDS011;4920;49.594;11.022;2023-02-28T05:54:00;12.13;;;7.40;;
9761;SDS011;4920;49.594;11.022;2023-02-28T05:56:29;11.97;;;7.33;;
9761;SDS011;4920;49.594;11.022;2023-02-28T05:58:58;11.17;;;6.77;;
9761;SDS011;4920;49.594;11.022;2023-02-28T06:01:31;10.10;;;7.07;;
9761;SDS011;4920;49.594;11.022;2023-02-28T06:04:03;12.37;;;7.50;;
9761;SDS011;4920;49.594;11.022;2023-02-28T06:06:34;11.37;;;7.30;;
9761;SDS011;4920;49.594;11.022;2023-02-28T06:09:04;11.10;;;6.90;;
9761;SDS011;4920;49.594;11.022;2023-02-28T06:11:33;13.60;;;7.63;;
9761;SDS011;4920;49.594;11.022;2023-02-28T06:14:02;12.07;;;7.03;;
9761;SDS011;4920;49.594;11.022;2023-02-28T06:16:32;12.63;;;7.43;;
9761;SDS011;4920;49.594;11.022;2023-02-28T06:19:02;10.23;;;6.93;;
9761;SDS011;4920;49.594;11.022;2023-02-28T06:21:32;11.87;;;7.23;;
9761;SDS011;4920;49.594;11.022;2023-02-28T06:24:02;13.50;;;7.23;;
9761;SDS011;4920;49.594;11.022;2023-02-28T06:26:32;11.03;;;7.07;;
9761;SDS011;4920;49.594;11.022;2023-02-28T06:29:01;11.87;;;7.30;;
9761;SDS011;4920;49.594;11.022;2023-02-28T06:31:30;11.17;;;7.53;;
9761;SDS011;4920;49.594;11.022;2023-02-28T06:34:00;12.30;;;7.50;;
9761;SDS011;4920;49.594;11.022;2023-02-28T06:36:29;12.17;;;7.57;;
9761;SDS011;4920;49.594;11.022;2023-02-28T06:38:58;10.63;;;7.63;;
9761;SDS011;4920;49.594;11.022;2023-02-28T06:41:28;14.50;;;8.00;;
9761;SDS011;4920;49.594;11.022;2023-02-28T06:44:17;12.27;;;7.60;;
9761;SDS011;4920;49.594;11.022;2023-02-28T06:46:47;12.43;;;7.47;;
9761;SDS011;4920;49.594;11.022;2023-02-28T06:49:16;10.67;;;7.33;;
9761;SDS011;4920;49.594;11.022;2023-02-28T06:51:45;11.43;;;7.87;;
9761;SDS011;4920;49.594;11.022;2023-02-28T06:54:14;11.83;;;8.10;;
9761;SDS011;4920;49.594;11.022;2023-02-28T06:56:44;11.40;;;7.47;;
9761;SDS011;4920;49.594;11.022;2023-02-28T06:59:13;11.20;;;7.80;;
9761;SDS011;4920;49.594;11.022;2023-02-28T07:01:42;10.50;;;7.27;;
9761;SDS011;4920;49.594;11.022;2023-02-28T07:04:11;12.27;;;8.17;;
9761;SDS011;4920;49.594;11.022;2023-02-28T07:06:40;11.37;;;7.60;;
9761;SDS011;4920;49.594;11.022;2023-02-28T07:09:08;13.97;;;8.10;;
9761;SDS011;4920;49.594;11.022;2023-02-28T07:11:37;12.63;;;8.13;;
9761;SDS011;4920;49.594;11.022;2023-02-28T07:14:07;12.20;;;8.03;;
9761;SDS011;4920;49.594;11.022;2023-02-28T07:16:37;12.00;;;7.93;;
9761;SDS011;4920;49.594;11.022;2023-02-28T07:19:05;11.73;;;8.10;;
9761;SDS011;4920;49.594;11.022;2023-02-28T07:21:34;12.40;;;8.00;;
9761;SDS011;4920;49.594;11.022;2023-02-28T07:24:03;12.67;;;7.83;;
9761;SDS011;4920;49.594;11.022;2023-02-28T07:26:32;13.77;;;8.00;;
9761;SDS011;4920;49.594;11.022;2023-02-28T07:29:02;11.63;;;7.83;;
9761;SDS011;4920;49.594;11.022;2023-02-28T07:31:32;13.03;;;8.43;;
9761;SDS011;4920;49.594;11.022;2023-02-28T07:34:06;12.67;;;8.33;;
9761;SDS011;4920;49.594;11.022;2023-02-28T07:36:35;16.47;;;8.33;;
9761;SDS011;4920;49.594;11.022;2023-02-28T07:39:04;12.73;;;7.77;;
9761;SDS011;4920;49.594;11.022;2023-02-28T07:41:33;11.27;;;7.77;;
9761;SDS011;4920;49.594;11.022;2023-02-28T07:44:05;12.40;;;8.20;;
9761;SDS011;4920;49.594;11.022;2023-02-28T07:46:36;14.30;;;7.87;;
9761;SDS011;4920;49.594;11.022;2023-02-28T07:49:05;12.00;;;7.90;;
9761;SDS011;4920;49.594;11.022;2023-02-28T07:51:36;13.30;;;8.57;;
9761;SDS011;4920;49.594;11.022;2023-02-28T07:54:06;13.13;;;8.27;;
9761;SDS011;4920;49.594;11.022;2023-02-28T07:56:34;15.57;;;8.80;;
9761;SDS011;4920;49.594;11.022;2023-02-28T07:59:03;13.87;;;8.50;;
9761;SDS011;4920;49.594;11.022;2023-02-28T08:01:32;13.70;;;8.70;;
9761;SDS011;4920;49.594;11.022;2023-02-28T08:04:02;12.43;;;7.70;;
9761;SDS011;4920;49.594;11.022;2023-02-28T08:09:31;13.00;;;8.00;;
9761;SDS011;4920;49.594;11.022;2023-02-28T08:14:55;12.77;;;8.37;;
9761;SDS011;4920;49.594;11.022;2023-02-28T08:20:47;13.40;;;8.27;;
9761;SDS011;4920;49.594;11.022;2023-02-28T08:23:16;13.07;;;8.10;;
9761;SDS011;4920;49.594;11.022;2023-02-28T08:25:44;14.13;;;8.37;;
9761;SDS011;4920;49.594;11.022;2023-02-28T08:31:42;11.73;;;7.90;;
9761;SDS011;4920;49.594;11.022;2023-02-28T08:34:12;12.83;;;8.20;;
9761;SDS011;4920;49.594;11.022;2023-02-28T08:36:43;12.73;;;7.73;;
9761;SDS011;4920;49.594;11.022;2023-02-28T08:39:12;11.13;;;8.27;;
9761;SDS011;4920;49.594;11.022;2023-02-28T08:41:46;12.83;;;8.57;;
9761;SDS011;4920;49.594;11.022;2023-02-28T08:50:45;11.47;;;8.40;;
9761;SDS011;4920;49.594;11.022;2023-02-28T08:53:34;11.37;;;7.93;;
9761;SDS011;4920;49.594;11.022;2023-02-28T08:56:04;12.43;;;8.37;;
9761;SDS011;4920;49.594;11.022;2023-02-28T08:58:35;11.40;;;8.50;;
9761;SDS011;4920;49.594;11.022;2023-02-28T09:01:07;11.83;;;8.47;;
9761;SDS011;4920;49.594;11.022;2023-02-28T09:03:37;13.97;;;8.80;;
9761;SDS011;4920;49.594;11.022;2023-02-28T09:06:08;11.47;;;7.33;;
9761;SDS011;4920;49.594;11.022;2023-02-28T09:08:39;13.00;;;8.27;;
9761;SDS011;4920;49.594;11.022;2023-02-28T09:11:08;11.40;;;8.03;;
9761;SDS011;4920;49.594;11.022;2023-02-28T09:13:38;11.97;;;8.80;;
9761;SDS011;4920;49.594;11.022;2023-02-28T09:16:08;11.20;;;8.47;;
9761;SDS011;4920;49.594;11.022;2023-02-28T09:18:39;12.17;;;8.50;;
9761;SDS011;4920;49.594;11.022;2023-02-28T09:21:10;12.30;;;8.57;;
9761;SDS011;4920;49.594;11.022;2023-02-28T09:23:44;12.33;;;8.40;;
9761;SDS011;4920;49.594;11.022;2023-02-28T09:26:14;13.10;;;8.07;;
9761;SDS011;4920;49.594;11.022;2023-02-28T09:28:44;11.50;;;7.70;;
9761;SDS011;4920;49.594;11.022;2023-02-28T09:31:14;11.00;;;7.80;;
9761;SDS011;4920;49.594;11.022;2023-02-28T09:33:47;12.00;;;7.70;;
9761;SDS011;4920;49.594;11.022;2023-02-28T09:36:16;12.93;;;8.07;;
9761;SDS011;4920;49.594;11.022;2023-02-28T09:38:48;10.23;;;7.47;;
9761;SDS011;4920;49.594;11.022;2023-02-28T09:41:20;13.30;;;7.40;;
9761;SDS011;4920;49.594;11.022;2023-02-28T09:43:52;11.90;;;7.43;;
9761;SDS011;4920;49.594;11.022;2023-02-28T09:46:30;11.60;;;7.63;;
9761;SDS011;4920;49.594;11.022;2023-02-28T09:49:04;11.33;;;7.37;;
9761;SDS011;4920;49.594;11.022;2023-02-28T09:51:46;10.77;;;7.43;;
9761;SDS011;4920;49.594;11.022;2023-02-28T09:54:20;9.93;;;7.23;;
9761;SDS011;4920;49.594;11.022;2023-02-28T09:56:51;11.40;;;7.10;;
9761;SDS011;4920;49.594;11.022;2023-02-28T09:59:29;8.43;;;6.53;;
9761;SDS011;4920;49.594;11.022;2023-02-28T10:02:11;11.20;;;6.63;;
9761;SDS011;4920;49.594;11.022;2023-02-28T10:05:07;9.17;;;6.10;;
9761;SDS011;4920;49.594;11.022;2023-02-28T10:07:45;12.20;;;7.10;;
9761;SDS011;4920;49.594;11.022;2023-02-28T10:10:32;9.20;;;6.93;;
9761;SDS011;4920;49.594;11.022;2023-02-28T10:13:06;9.17;;;6.67;;
9761;SDS011;4920;49.594;11.022;2023-02-28T10:15:43;9.97;;;6.70;;
9761;SDS011;4920;49.594;11.022;2023-02-28T10:18:16;8.73;;;6.47;;
9761;SDS011;4920;49.594;11.022;2023-02-28T10:20:51;8.40;;;6.60;;
9761;SDS011;4920;49.594;11.022;2023-02-28T10:23:23;9.63;;;6.90;;
9761;SDS011;4920;49.594;11.022;2023-02-28T10:25:57;8.30;;;6.47;;
9761;SDS011;4920;49.594;11.022;2023-02-28T10:28:28;10.50;;;6.00;;
9761;SDS011;4920;49.594;11.022;2023-02-28T10:30:59;10.13;;;6.50;;
9761;SDS011;4920;49.594;11.022;2023-02-28T10:33:30;9.13;;;6.40;;
9761;SDS011;4920;49.594;11.022;2023-02-28T10:36:02;9.50;;;6.67;;
9761;SDS011;4920;49.594;11.022;2023-02-28T10:38:34;9.87;;;6.53;;
9761;SDS011;4920;49.594;11.022;2023-02-28T10:41:07;8.50;;;6.60;;
9761;SDS011;4920;49.594;11.022;2023-02-28T10:43:37;9.87;;;6.67;;
9761;SDS011;4920;49.594;11.022;2023-02-28T10:46:12;10.43;;;6.83;;
9761;SDS011;4920;49.594;11.022;2023-02-28T10:49:00;9.47;;;6.47;;
9761;SDS011;4920;49.594;11.022;2023-02-28T10:51:35;8.23;;;6.10;;
9761;SDS011;4920;49.594;11.022;2023-02-28T10:54:05;8.23;;;6.13;;
9761;SDS011;4920;49.594;11.022;2023-02-28T10:56:45;11.67;;;6.40;;
9761;SDS011;4920;49.594;11.022;2023-02-28T10:59:33;8.53;;;5.50;;
9761;SDS011;4920;49.594;11.022;2023-02-28T11:02:08;8.90;;;6.53;;
9761;SDS011;4920;49.594;11.022;2023-02-28T11:05:00;9.73;;;6.60;;
9761;SDS011;4920;49.594;11.022;2023-02-28T11:07:29;9.80;;;6.93;;
9761;SDS011;4920;49.594;11.022;2023-02-28T11:10:17;10.10;;;6.60;;
9761;SDS011;4920;49.594;11.022;2023-02-28T11:12:53;9.80;;;7.03;;
9761;SDS011;4920;49.594;11.022;2023-02-28T11:15:27;8.03;;;6.43;;
9761;SDS011;4920;49.594;11.022;2023-02-28T11:18:01;9.73;;;6.67;;
9761;SDS011;4920;49.594;11.022;2023-02-28T11:20:47;7.43;;;6.10;;
9761;SDS011;4920;49.594;11.022;2023-02-28T11:23:17;8.80;;;6.67;;
9761;SDS011;4920;49.594;11.022;2023-02-28T11:25:48;9.50;;;6.97;;
9761;SDS011;4920;49.594;11.022;2023-02-28T11:28:26;10.50;;;6.93;;
9761;SDS011;4920;49.594;11.022;2023-02-28T11:31:03;10.77;;;6.90;;
9761;SDS011;4920;49.594;11.022;2023-02-28T11:33:40;10.03;;;6.50;;
9761;SDS011;4920;49.594;11.022;2023-02-28T11:36:12;8.27;;;6.40;;
9761;SDS011;4920;49.594;11.022;2023-02-28T11:38:44;7.67;;;5.97;;
9761;SDS011;4920;49.594;11.022;2023-02-28T11:41:21;10.33;;;6.23;;
9761;SDS011;4920;49.594;11.022;2023-02-28T11:46:57;9.20;;;6.43;;
9761;SDS011;4920;49.594;11.022;2023-02-28T11:49:31;9.30;;;6.63;;
9761;SDS011;4920;49.594;11.022;2023-02-28T11:52:06;10.10;;;6.93;;
9761;SDS011;4920;49.594;11.022;2023-02-28T11:54:59;8.80;;;6.57;;
9761;SDS011;4920;49.594;11.022;2023-02-28T11:57:45;10.60;;;6.53;;
9761;SDS011;4920;49.594;11.022;2023-02-28T12:00:35;9.30;;;6.33;;
9761;SDS011;4920;49.594;11.022;2023-02-28T12:03:21;8.23;;;6.50;;
9761;SDS011;4920;49.594;11.022;2023-02-28T12:06:01;9.30;;;6.23;;
9761;SDS011;4920;49.594;11.022;2023-02-28T12:08:47;9.50;;;6.63;;
9761;SDS011;4920;49.594;11.022;2023-02-28T12:11:28;9.80;;;6.73;;
9761;SDS011;4920;49.594;11.022;2023-02-28T12:17:12;9.63;;;6.47;;
9761;SDS011;4920;49.594;11.022;2023-02-28T12:19:52;8.80;;;6.33;;
9761;SDS011;4920;49.594;11.022;2023-02-28T12:22:30;10.37;;;6.93;;
9761;SDS011;4920;49.594;11.022;2023-02-28T12:28:04;9.20;;;6.93;;
9761;SDS011;4920;49.594;11.022;2023-02-28T12:30:33;10.07;;;7.10;;
9761;SDS011;4920;49.594;11.022;2023-02-28T12:33:07;9.73;;;6.23;;
9761;SDS011;4920;49.594;11.022;2023-02-28T12:35:41;10.77;;;6.80;;
9761;SDS011;4920;49.594;11.022;2023-02-28T12:38:16;8.40;;;6.63;;
9761;SDS011;4920;49.594;11.022;2023-02-28T12:40:49;8.47;;;6.70;;
9761;SDS011;4920;49.594;11.022;2023-02-28T12:43:22;11.33;;;7.00;;
9761;SDS011;4920;49.594;11.022;2023-02-28T12:45:58;9.77;;;6.93;;
9761;SDS011;4920;49.594;11.022;2023-02-28T12:48:35;10.37;;;7.00;;
9761;SDS011;4920;49.594;11.022;2023-02-28T12:51:09;10.03;;;6.77;;
9761;SDS011;4920;49.594;11.022;2023-02-28T12:53:42;11.97;;;7.57;;
9761;SDS011;4920;49.594;11.022;2023-02-28T12:56:24;10.13;;;7.00;;
9761;SDS011;4920;49.594;11.022;2023-02-28T12:59:01;11.40;;;7.17;;
9761;SDS011;4920;49.594;11.022;2023-02-28T13:01:51;10.57;;;7.50;;
9761;SDS011;4920;49.594;11.022;2023-02-28T13:04:34;10.87;;;7.37;;
9761;SDS011;4920;49.594;11.022;2023-02-28T13:07:26;10.30;;;7.20;;
9761;SDS011;4920;49.594;11.022;2023-02-28T13:10:17;11.27;;;7.47;;
9761;SDS011;4920;49.594;11.022;2023-02-28T13:12:48;11.07;;;7.40;;
9761;SDS011;4920;49.594;11.022;2023-02-28T13:15:19;10.97;;;7.47;;
9761;SDS011;4920;49.594;11.022;2023-02-28T13:17:51;11.73;;;7.70;;
9761;SDS011;4920;49.594;11.022;2023-02-28T13:23:39;11.53;;;7.67;;
9761;SDS011;4920;49.594;11.022;2023-02-28T13:29:36;10.90;;;7.70;;
9761;SDS011;4920;49.594;11.022;2023-02-28T13:35:12;11.07;;;7.57;;
9761;SDS011;4920;49.594;11.022;2023-02-28T13:37:48;10.43;;;7.27;;
9761;SDS011;4920;49.594;11.022;2023-02-28T13:40:28;10.27;;;6.70;;
9761;SDS011;4920;49.594;11.022;2023-02-28T13:43:06;10.20;;;6.90;;
9761;SDS011;4920;49.594;11.022;2023-02-28T13:45:37;10.63;;;7.57;;
9761;SDS011;4920;49.594;11.022;2023-02-28T13:48:15;11.27;;;7.43;;
9761;SDS011;4920;49.594;11.022;2023-02-28T13:50:46;10.33;;;7.30;;
9761;SDS011;4920;49.594;11.022;2023-02-28T13:53:30;9.00;;;7.17;;
9761;SDS011;4920;49.594;11.022;2023-02-28T13:59:14;10.10;;;7.37;;
9761;SDS011;4920;49.594;11.022;2023-02-28T14:01:57;12.10;;;7.67;;
9761;SDS011;4920;49.594;11.022;2023-02-28T14:04:47;11.00;;;7.67;;
9761;SDS011;4920;49.594;11.022;2023-02-28T14:07:40;10.50;;;7.23;;
9761;SDS011;4920;49.594;11.022;2023-02-28T14:10:25;12.57;;;8.10;;
9761;SDS011;4920;49.594;11.022;2023-02-28T14:13:00;11.33;;;8.13;;
9761;SDS011;4920;49.594;11.022;2023-02-28T14:15:38;11.33;;;7.33;;
9761;SDS011;4920;49.594;11.022;2023-02-28T14:18:24;9.23;;;7.37;;
9761;SDS011;4920;49.594;11.022;2023-02-28T14:21:01;13.97;;;7.80;;
9761;SDS011;4920;49.594;11.022;2023-02-28T14:33:16;12.33;;;8.27;;
9761;SDS011;4920;49.594;11.022;2023-02-28T14:35:56;12.10;;;7.73;;
9761;SDS011;4920;49.594;11.022;2023-02-28T14:38:36;10.80;;;8.23;;
9761;SDS011;4920;49.594;11.022;2023-02-28T14:41:14;12.37;;;8.67;;
9761;SDS011;4920;49.594;11.022;2023-02-28T14:43:49;13.60;;;8.63;;
9761;SDS011;4920;49.594;11.022;2023-02-28T14:46:21;12.37;;;8.30;;
9761;SDS011;4920;49.594;11.022;2023-02-28T14:48:54;11.47;;;8.17;;
9761;SDS011;4920;49.594;11.022;2023-02-28T14:51:23;12.00;;;7.87;;
9761;SDS011;4920;49.594;11.022;2023-02-28T14:53:57;11.37;;;8.27;;
9761;SDS011;4920;49.594;11.022;2023-02-28T14:56:30;11.13;;;7.90;;
9761;SDS011;4920;49.594;11.022;2023-02-28T14:59:05;11.53;;;8.60;;
9761;SDS011;4920;49.594;11.022;2023-02-28T15:01:52;11.67;;;8.30;;
9761;SDS011;4920;49.594;11.022;2023-02-28T15:04:35;12.43;;;8.10;;
9761;SDS011;4920;49.594;11.022;2023-02-28T15:07:07;11.40;;;8.20;;
9761;SDS011;4920;49.594;11.022;2023-02-28T15:09:36;11.63;;;8.50;;
9761;SDS011;4920;49.594;11.022;2023-02-28T15:12:05;12.20;;;8.27;;
9761;SDS011;4920;49.594;11.022;2023-02-28T15:14:36;13.93;;;8.80;;
9761;SDS011;4920;49.594;11.022;2023-02-28T15:17:12;13.77;;;8.60;;
9761;SDS011;4920;49.594;11.022;2023-02-28T15:19:50;11.63;;;8.33;;
9761;SDS011;4920;49.594;11.022;2023-02-28T15:22:25;13.10;;;8.23;;
9761;SDS011;4920;49.594;11.022;2023-02-28T15:24:56;10.83;;;8.10;;
9761;SDS011;4920;49.594;11.022;2023-02-28T15:27:27;10.63;;;7.63;;
9761;SDS011;4920;49.594;11.022;2023-02-28T15:30:00;14.80;;;8.33;;
9761;SDS011;4920;49.594;11.022;2023-02-28T15:32:34;13.17;;;8.13;;
9761;SDS011;4920;49.594;11.022;2023-02-28T15:38:01;12.07;;;8.40;;
9761;SDS011;4920;49.594;11.022;2023-02-28T15:40:35;11.27;;;7.90;;
9761;SDS011;4920;49.594;11.022;2023-02-28T15:43:06;12.30;;;8.20;;
9761;SDS011;4920;49.594;11.022;2023-02-28T15:45:44;12.50;;;8.40;;
9761;SDS011;4920;49.594;11.022;2023-02-28T15:48:16;11.87;;;8.20;;
9761;SDS011;4920;49.594;11.022;2023-02-28T15:50:47;11.07;;;8.33;;
9761;SDS011;4920;49.594;11.022;2023-02-28T15:53:19;12.80;;;8.43;;
9761;SDS011;4920;49.594;11.022;2023-02-28T15:55:52;11.47;;;8.13;;
9761;SDS011;4920;49.594;11.022;2023-02-28T15:58:23;13.60;;;8.57;;
9761;SDS011;4920;49.594;11.022;2023-02-28T16:01:01;15.20;;;8.27;;
9761;SDS011;4920;49.594;11.022;2023-02-28T16:03:40;12.33;;;8.73;;
9761;SDS011;4920;49.594;11.022;2023-02-28T16:06:26;12.27;;;8.90;;
9761;SDS011;4920;49.594;11.022;2023-02-28T16:09:01;11.80;;;8.17;;
9761;SDS011;4920;49.594;11.022;2023-02-28T16:11:30;13.43;;;9.07;;
9761;SDS011;4920;49.594;11.022;2023-02-28T16:14:00;13.97;;;9.07;;
9761;SDS011;4920;49.594;11.022;2023-02-28T16:16:31;13.70;;;9.13;;
9761;SDS011;4920;49.594;11.022;2023-02-28T16:19:01;14.80;;;9.20;;
9761;SDS011;4920;49.594;11.022;2023-02-28T16:21:36;11.87;;;8.83;;
9761;SDS011;4920;49.594;11.022;2023-02-28T16:28:15;12.07;;;8.73;;
9761;SDS011;4920;49.594;11.022;2023-02-28T16:30:48;12.03;;;8.87;;
9761;SDS011;4920;49.594;11.022;2023-02-28T16:33:21;13.80;;;9.67;;